sensor_id;sensor_type;location;lat;lon;timestamp;P1;durP1;ratioP1;P2;durP2;ratioP2
57395;SDS011;43222;52.912;6.940;2023-04-16T00:00:27;82.03;;;45.00;;
57395;SDS011;43222;52.912;6.940;2023-04-16T00:02:53;88.45;;;44.65;;
57395;SDS011;43222;52.912;6.940;2023-04-16T00:05:20;87.97;;;44.47;;
57395;SDS011;43222;52.912;6.940;2023-04-16T00:07:46;80.60;;;42.67;;
57395;SDS011;43222;52.912;6.940;2023-04-16T00:10:12;97.40;;;44.45;;
57395;SDS011;43222;52.912;6.940;2023-04-16T00:12:38;86.50;;;42.58;;
57395;SDS011;43222;52.912;6.940;2023-04-16T00:15:05;84.55;;;42.38;;
57395;SDS011;43222;52.912;6.940;2023-04-16T00:17:31;91.25;;;44.42;;
57395;SDS011;43222;52.912;6.940;2023-04-16T00:19:57;91.60;;;45.63;;
57395;SDS011;43222;52.912;6.940;2023-04-16T00:22:23;82.35;;;43.90;;
57395;SDS011;43222;52.912;6.940;2023-04-16T00:24:49;88.20;;;44.60;;
57395;SDS011;43222;52.912;6.940;2023-04-16T00:27:15;97.03;;;46.55;;
57395;SDS011;43222;52.912;6.940;2023-04-16T00:29:41;110.13;;;46.38;;
57395;SDS011;43222;52.912;6.940;2023-04-16T00:32:07;92.68;;;45.90;;
57395;SDS011;43222;52.912;6.940;2023-04-16T00:34:33;99.68;;;47.00;;
57395;SDS011;43222;52.912;6.940;2023-04-16T00:37:00;103.57;;;46.38;;
57395;SDS011;43222;52.912;6.940;2023-04-16T00:39:26;97.68;;;47.25;;
57395;SDS011;43222;52.912;6.940;2023-04-16T00:41:52;92.80;;;45.95;;
57395;SDS011;43222;52.912;6.940;2023-04-16T00:44:18;95.68;;;45.13;;
57395;SDS011;43222;52.912;6.940;2023-04-16T00:46:44;85.60;;;43.28;;
57395;SDS011;43222;52.912;6.940;2023-04-16T00:49:10;90.47;;;43.30;;
57395;SDS011;43222;52.912;6.940;2023-04-16T00:51:36;90.80;;;43.80;;
57395;SDS011;43222;52.912;6.940;2023-04-16T00:54:02;84.70;;;42.85;;
57395;SDS011;43222;52.912;6.940;2023-04-16T00:56:29;90.70;;;43.05;;
57395;SDS011;43222;52.912;6.940;2023-04-16T00:58:55;95.03;;;45.00;;
57395;SDS011;43222;52.912;6.940;2023-04-16T01:01:21;90.13;;;43.30;;
57395;SDS011;43222;52.912;6.940;2023-04-16T01:03:48;91.63;;;42.00;;
57395;SDS011;43222;52.912;6.940;2023-04-16T01:06:17;96.40;;;43.63;;
57395;SDS011;43222;52.912;6.940;2023-04-16T01:08:43;103.78;;;44.78;;
57395;SDS011;43222;52.912;6.940;2023-04-16T01:11:10;96.45;;;43.95;;
57395;SDS011;43222;52.912;6.940;2023-04-16T01:13:36;90.78;;;42.67;;
57395;SDS011;43222;52.912;6.940;2023-04-16T01:16:04;105.93;;;45.58;;
57395;SDS011;43222;52.912;6.940;2023-04-16T01:18:31;111.35;;;45.80;;
57395;SDS011;43222;52.912;6.940;2023-04-16T01:20:57;89.13;;;44.90;;
57395;SDS011;43222;52.912;6.940;2023-04-16T01:23:24;122.72;;;46.58;;
57395;SDS011;43222;52.912;6.940;2023-04-16T01:25:50;107.55;;;46.08;;
57395;SDS011;43222;52.912;6.940;2023-04-16T01:28:16;112.47;;;46.35;;
57395;SDS011;43222;52.912;6.940;2023-04-16T01:30:42;89.97;;;43.55;;
57395;SDS011;43222;52.912;6.940;2023-04-16T01:33:09;94.43;;;43.92;;
57395;SDS011;43222;52.912;6.940;2023-04-16T01:35:36;110.85;;;46.58;;
57395;SDS011;43222;52.912;6.940;2023-04-16T01:38:02;101.85;;;46.38;;
57395;SDS011;43222;52.912;6.940;2023-04-16T01:40:28;115.75;;;48.63;;
57395;SDS011;43222;52.912;6.940;2023-04-16T01:42:55;123.32;;;47.92;;
57395;SDS011;43222;52.912;6.940;2023-04-16T01:45:21;125.35;;;49.00;;
57395;SDS011;43222;52.912;6.940;2023-04-16T01:47:50;126.38;;;50.25;;
57395;SDS011;43222;52.912;6.940;2023-04-16T01:50:17;123.78;;;49.70;;
57395;SDS011;43222;52.912;6.940;2023-04-16T01:52:43;125.80;;;49.95;;
57395;SDS011;43222;52.912;6.940;2023-04-16T01:55:09;125.15;;;49.22;;
57395;SDS011;43222;52.912;6.940;2023-04-16T01:57:35;110.50;;;48.75;;
57395;SDS011;43222;52.912;6.940;2023-04-16T02:00:02;103.95;;;47.28;;
57395;SDS011;43222;52.912;6.940;2023-04-16T02:02:28;122.72;;;49.22;;
57395;SDS011;43222;52.912;6.940;2023-04-16T02:04:55;125.43;;;49.55;;
57395;SDS011;43222;52.912;6.940;2023-04-16T02:07:21;110.45;;;48.05;;
57395;SDS011;43222;52.912;6.940;2023-04-16T02:09:47;120.03;;;51.08;;
57395;SDS011;43222;52.912;6.940;2023-04-16T02:12:16;110.60;;;48.58;;
57395;SDS011;43222;52.912;6.940;2023-04-16T02:14:42;98.20;;;47.55;;
57395;SDS011;43222;52.912;6.940;2023-04-16T02:17:09;123.88;;;50.25;;
57395;SDS011;43222;52.912;6.940;2023-04-16T02:19:35;101.22;;;49.88;;
57395;SDS011;43222;52.912;6.940;2023-04-16T02:22:01;97.90;;;47.95;;
57395;SDS011;43222;52.912;6.940;2023-04-16T02:24:27;121.60;;;50.20;;
57395;SDS011;43222;52.912;6.940;2023-04-16T02:26:54;119.97;;;51.00;;
57395;SDS011;43222;52.912;6.940;2023-04-16T02:29:20;115.85;;;49.83;;
57395;SDS011;43222;52.912;6.940;2023-04-16T02:31:47;111.05;;;51.67;;
57395;SDS011;43222;52.912;6.940;2023-04-16T02:34:13;114.22;;;50.08;;
57395;SDS011;43222;52.912;6.940;2023-04-16T02:36:40;135.18;;;51.42;;
57395;SDS011;43222;52.912;6.940;2023-04-16T02:39:06;114.97;;;50.55;;
57395;SDS011;43222;52.912;6.940;2023-04-16T02:41:32;142.75;;;51.65;;
57395;SDS011;43222;52.912;6.940;2023-04-16T02:43:58;112.13;;;50.38;;
57395;SDS011;43222;52.912;6.940;2023-04-16T02:46:25;112.15;;;50.83;;
57395;SDS011;43222;52.912;6.940;2023-04-16T02:48:51;148.15;;;52.75;;
57395;SDS011;43222;52.912;6.940;2023-04-16T02:51:17;108.93;;;48.95;;
57395;SDS011;43222;52.912;6.940;2023-04-16T02:53:43;99.63;;;49.10;;
57395;SDS011;43222;52.912;6.940;2023-04-16T02:56:10;117.38;;;50.33;;
57395;SDS011;43222;52.912;6.940;2023-04-16T02:58:37;160.07;;;52.70;;
57395;SDS011;43222;52.912;6.940;2023-04-16T03:01:03;115.90;;;49.90;;
57395;SDS011;43222;52.912;6.940;2023-04-16T03:03:29;135.75;;;51.65;;
57395;SDS011;43222;52.912;6.940;2023-04-16T03:05:55;112.60;;;50.90;;
57395;SDS011;43222;52.912;6.940;2023-04-16T03:08:21;119.82;;;51.25;;
57395;SDS011;43222;52.912;6.940;2023-04-16T03:10:47;114.05;;;49.30;;
57395;SDS011;43222;52.912;6.940;2023-04-16T03:13:13;132.63;;;51.78;;
57395;SDS011;43222;52.912;6.940;2023-04-16T03:15:40;131.23;;;51.83;;
57395;SDS011;43222;52.912;6.940;2023-04-16T03:18:06;125.85;;;48.92;;
57395;SDS011;43222;52.912;6.940;2023-04-16T03:20:32;119.50;;;49.40;;
57395;SDS011;43222;52.912;6.940;2023-04-16T03:22:58;140.55;;;51.08;;
57395;SDS011;43222;52.912;6.940;2023-04-16T03:25:24;93.68;;;48.00;;
57395;SDS011;43222;52.912;6.940;2023-04-16T03:27:50;97.05;;;47.30;;
57395;SDS011;43222;52.912;6.940;2023-04-16T03:30:16;102.18;;;47.38;;
57395;SDS011;43222;52.912;6.940;2023-04-16T03:32:42;98.40;;;49.13;;
57395;SDS011;43222;52.912;6.940;2023-04-16T03:35:09;126.15;;;51.33;;
57395;SDS011;43222;52.912;6.940;2023-04-16T03:37:35;98.07;;;48.30;;
57395;SDS011;43222;52.912;6.940;2023-04-16T03:40:01;81.75;;;45.85;;
57395;SDS011;43222;52.912;6.940;2023-04-16T03:42:29;84.28;;;45.85;;
57395;SDS011;43222;52.912;6.940;2023-04-16T03:44:55;104.05;;;47.47;;
57395;SDS011;43222;52.912;6.940;2023-04-16T03:47:21;124.85;;;50.38;;
57395;SDS011;43222;52.912;6.940;2023-04-16T03:49:47;91.53;;;47.58;;
57395;SDS011;43222;52.912;6.940;2023-04-16T03:52:14;85.20;;;45.55;;
57395;SDS011;43222;52.912;6.940;2023-04-16T03:54:40;84.03;;;46.50;;
57395;SDS011;43222;52.912;6.940;2023-04-16T03:57:06;98.82;;;45.65;;
57395;SDS011;43222;52.912;6.940;2023-04-16T03:59:32;98.28;;;47.03;;
57395;SDS011;43222;52.912;6.940;2023-04-16T04:01:58;115.65;;;47.90;;
57395;SDS011;43222;52.912;6.940;2023-04-16T04:04:24;90.88;;;45.85;;
57395;SDS011;43222;52.912;6.940;2023-04-16T04:06:50;97.55;;;46.75;;
57395;SDS011;43222;52.912;6.940;2023-04-16T04:09:16;97.10;;;48.30;;
57395;SDS011;43222;52.912;6.940;2023-04-16T04:11:42;106.38;;;46.50;;
57395;SDS011;43222;52.912;6.940;2023-04-16T04:14:08;104.75;;;45.63;;
57395;SDS011;43222;52.912;6.940;2023-04-16T04:16:34;87.00;;;44.58;;
57395;SDS011;43222;52.912;6.940;2023-04-16T04:19:00;87.53;;;45.45;;
57395;SDS011;43222;52.912;6.940;2023-04-16T04:21:27;78.40;;;44.33;;
57395;SDS011;43222;52.912;6.940;2023-04-16T04:23:53;88.38;;;42.70;;
57395;SDS011;43222;52.912;6.940;2023-04-16T04:26:19;89.57;;;43.35;;
57395;SDS011;43222;52.912;6.940;2023-04-16T04:28:45;88.40;;;43.55;;
57395;SDS011;43222;52.912;6.940;2023-04-16T04:31:12;82.18;;;43.22;;
57395;SDS011;43222;52.912;6.940;2023-04-16T04:33:38;85.32;;;45.15;;
57395;SDS011;43222;52.912;6.940;2023-04-16T04:36:04;82.65;;;42.38;;
57395;SDS011;43222;52.912;6.940;2023-04-16T04:38:31;85.32;;;43.47;;
57395;SDS011;43222;52.912;6.940;2023-04-16T04:40:57;79.88;;;42.88;;
57395;SDS011;43222;52.912;6.940;2023-04-16T04:43:24;82.88;;;42.90;;
57395;SDS011;43222;52.912;6.940;2023-04-16T04:45:50;88.70;;;43.80;;
57395;SDS011;43222;52.912;6.940;2023-04-16T04:48:16;83.15;;;44.10;;
57395;SDS011;43222;52.912;6.940;2023-04-16T04:50:43;83.40;;;44.13;;
57395;SDS011;43222;52.912;6.940;2023-04-16T04:53:09;80.07;;;43.08;;
57395;SDS011;43222;52.912;6.940;2023-04-16T04:55:36;91.68;;;42.83;;
57395;SDS011;43222;52.912;6.940;2023-04-16T04:58:03;84.68;;;42.85;;
57395;SDS011;43222;52.912;6.940;2023-04-16T05:00:29;76.15;;;41.30;;
57395;SDS011;43222;52.912;6.940;2023-04-16T05:02:55;72.47;;;39.80;;
57395;SDS011;43222;52.912;6.940;2023-04-16T05:05:22;73.80;;;39.75;;
57395;SDS011;43222;52.912;6.940;2023-04-16T05:07:48;83.40;;;41.55;;
57395;SDS011;43222;52.912;6.940;2023-04-16T05:10:14;73.70;;;40.20;;
57395;SDS011;43222;52.912;6.940;2023-04-16T05:12:40;72.05;;;39.60;;
57395;SDS011;43222;52.912;6.940;2023-04-16T05:15:06;67.05;;;39.22;;
57395;SDS011;43222;52.912;6.940;2023-04-16T05:17:32;67.50;;;39.20;;
57395;SDS011;43222;52.912;6.940;2023-04-16T05:19:59;77.38;;;40.47;;
57395;SDS011;43222;52.912;6.940;2023-04-16T05:22:25;69.82;;;37.97;;
57395;SDS011;43222;52.912;6.940;2023-04-16T05:24:51;86.30;;;42.03;;
57395;SDS011;43222;52.912;6.940;2023-04-16T05:27:17;79.03;;;40.53;;
57395;SDS011;43222;52.912;6.940;2023-04-16T05:29:43;68.40;;;38.45;;
57395;SDS011;43222;52.912;6.940;2023-04-16T05:32:09;64.07;;;37.33;;
57395;SDS011;43222;52.912;6.940;2023-04-16T05:34:35;74.15;;;38.42;;
57395;SDS011;43222;52.912;6.940;2023-04-16T05:37:01;66.32;;;38.05;;
57395;SDS011;43222;52.912;6.940;2023-04-16T05:39:27;64.32;;;37.10;;
57395;SDS011;43222;52.912;6.940;2023-04-16T05:41:53;66.25;;;38.33;;
57395;SDS011;43222;52.912;6.940;2023-04-16T05:44:20;64.90;;;38.03;;
57395;SDS011;43222;52.912;6.940;2023-04-16T05:46:46;63.08;;;36.50;;
57395;SDS011;43222;52.912;6.940;2023-04-16T05:49:12;68.05;;;37.50;;
57395;SDS011;43222;52.912;6.940;2023-04-16T05:51:38;63.85;;;36.22;;
57395;SDS011;43222;52.912;6.940;2023-04-16T05:54:04;71.68;;;36.40;;
57395;SDS011;43222;52.912;6.940;2023-04-16T05:56:30;62.05;;;36.20;;
57395;SDS011;43222;52.912;6.940;2023-04-16T05:58:56;60.38;;;37.40;;
57395;SDS011;43222;52.912;6.940;2023-04-16T06:01:24;69.75;;;38.80;;
57395;SDS011;43222;52.912;6.940;2023-04-16T06:03:50;63.00;;;38.15;;
57395;SDS011;43222;52.912;6.940;2023-04-16T06:06:16;65.25;;;37.53;;
57395;SDS011;43222;52.912;6.940;2023-04-16T06:08:42;75.15;;;38.55;;
57395;SDS011;43222;52.912;6.940;2023-04-16T06:11:08;69.53;;;38.67;;
57395;SDS011;43222;52.912;6.940;2023-04-16T06:13:34;79.43;;;38.20;;
57395;SDS011;43222;52.912;6.940;2023-04-16T06:16:00;73.72;;;37.22;;
57395;SDS011;43222;52.912;6.940;2023-04-16T06:18:26;65.35;;;37.15;;
57395;SDS011;43222;52.912;6.940;2023-04-16T06:20:52;68.32;;;36.45;;
57395;SDS011;43222;52.912;6.940;2023-04-16T06:23:18;65.05;;;35.38;;
57395;SDS011;43222;52.912;6.940;2023-04-16T06:25:45;63.60;;;36.03;;
57395;SDS011;43222;52.912;6.940;2023-04-16T06:28:11;67.25;;;36.67;;
57395;SDS011;43222;52.912;6.940;2023-04-16T06:30:37;66.05;;;36.47;;
57395;SDS011;43222;52.912;6.940;2023-04-16T06:33:04;64.47;;;36.83;;
57395;SDS011;43222;52.912;6.940;2023-04-16T06:35:30;63.75;;;36.60;;
57395;SDS011;43222;52.912;6.940;2023-04-16T06:37:56;56.53;;;35.45;;
57395;SDS011;43222;52.912;6.940;2023-04-16T06:40:22;63.85;;;37.63;;
57395;SDS011;43222;52.912;6.940;2023-04-16T06:42:48;66.85;;;37.75;;
57395;SDS011;43222;52.912;6.940;2023-04-16T06:45:14;69.70;;;36.33;;
57395;SDS011;43222;52.912;6.940;2023-04-16T06:47:40;64.72;;;35.35;;
57395;SDS011;43222;52.912;6.940;2023-04-16T06:50:06;67.38;;;36.20;;
57395;SDS011;43222;52.912;6.940;2023-04-16T06:52:32;61.60;;;35.85;;
57395;SDS011;43222;52.912;6.940;2023-04-16T06:54:58;66.32;;;36.00;;
57395;SDS011;43222;52.912;6.940;2023-04-16T06:57:24;63.55;;;36.50;;
57395;SDS011;43222;52.912;6.940;2023-04-16T06:59:50;68.88;;;34.28;;
57395;SDS011;43222;52.912;6.940;2023-04-16T07:02:16;63.72;;;36.38;;
57395;SDS011;43222;52.912;6.940;2023-04-16T07:04:42;65.30;;;36.83;;
57395;SDS011;43222;52.912;6.940;2023-04-16T07:07:08;66.53;;;36.58;;
57395;SDS011;43222;52.912;6.940;2023-04-16T07:09:35;66.53;;;37.33;;
57395;SDS011;43222;52.912;6.940;2023-04-16T07:12:01;65.32;;;36.50;;
57395;SDS011;43222;52.912;6.940;2023-04-16T07:14:27;53.42;;;35.42;;
57395;SDS011;43222;52.912;6.940;2023-04-16T07:16:53;65.15;;;38.10;;
57395;SDS011;43222;52.912;6.940;2023-04-16T07:19:19;62.35;;;36.58;;
57395;SDS011;43222;52.912;6.940;2023-04-16T07:21:45;60.60;;;37.45;;
57395;SDS011;43222;52.912;6.940;2023-04-16T07:24:11;59.10;;;36.63;;
57395;SDS011;43222;52.912;6.940;2023-04-16T07:26:37;65.57;;;37.55;;
57395;SDS011;43222;52.912;6.940;2023-04-16T07:29:03;68.40;;;37.75;;
57395;SDS011;43222;52.912;6.940;2023-04-16T07:31:29;62.78;;;37.67;;
57395;SDS011;43222;52.912;6.940;2023-04-16T07:33:56;58.33;;;36.60;;
57395;SDS011;43222;52.912;6.940;2023-04-16T07:36:22;63.40;;;37.40;;
57395;SDS011;43222;52.912;6.940;2023-04-16T07:38:48;64.30;;;37.67;;
57395;SDS011;43222;52.912;6.940;2023-04-16T07:41:14;70.05;;;38.35;;
57395;SDS011;43222;52.912;6.940;2023-04-16T07:43:40;60.72;;;37.03;;
57395;SDS011;43222;52.912;6.940;2023-04-16T07:46:06;61.15;;;36.40;;
57395;SDS011;43222;52.912;6.940;2023-04-16T07:48:32;61.58;;;35.00;;
57395;SDS011;43222;52.912;6.940;2023-04-16T07:50:58;51.97;;;34.95;;
57395;SDS011;43222;52.912;6.940;2023-04-16T07:53:25;55.17;;;35.42;;
57395;SDS011;43222;52.912;6.940;2023-04-16T07:55:51;57.67;;;35.28;;
57395;SDS011;43222;52.912;6.940;2023-04-16T07:58:17;60.63;;;35.25;;
57395;SDS011;43222;52.912;6.940;2023-04-16T08:00:43;55.50;;;34.38;;
57395;SDS011;43222;52.912;6.940;2023-04-16T08:03:09;53.20;;;33.53;;
57395;SDS011;43222;52.912;6.940;2023-04-16T08:05:35;54.65;;;33.35;;
57395;SDS011;43222;52.912;6.940;2023-04-16T08:08:01;52.03;;;32.80;;
57395;SDS011;43222;52.912;6.940;2023-04-16T08:10:27;52.83;;;34.45;;
57395;SDS011;43222;52.912;6.940;2023-04-16T08:12:53;56.03;;;35.45;;
57395;SDS011;43222;52.912;6.940;2023-04-16T08:15:19;61.00;;;38.17;;
57395;SDS011;43222;52.912;6.940;2023-04-16T08:17:45;56.15;;;33.90;;
57395;SDS011;43222;52.912;6.940;2023-04-16T08:20:11;56.50;;;36.97;;
57395;SDS011;43222;52.912;6.940;2023-04-16T08:22:38;57.20;;;36.25;;
57395;SDS011;43222;52.912;6.940;2023-04-16T08:25:04;54.97;;;34.42;;
57395;SDS011;43222;52.912;6.940;2023-04-16T08:27:30;49.55;;;31.58;;
57395;SDS011;43222;52.912;6.940;2023-04-16T08:29:56;51.30;;;31.02;;
57395;SDS011;43222;52.912;6.940;2023-04-16T08:32:22;50.35;;;30.55;;
57395;SDS011;43222;52.912;6.940;2023-04-16T08:34:48;44.20;;;27.70;;
57395;SDS011;43222;52.912;6.940;2023-04-16T08:37:14;42.53;;;28.67;;
57395;SDS011;43222;52.912;6.940;2023-04-16T08:39:40;45.58;;;27.38;;
57395;SDS011;43222;52.912;6.940;2023-04-16T08:42:08;43.83;;;26.50;;
57395;SDS011;43222;52.912;6.940;2023-04-16T08:44:38;40.35;;;25.42;;
57395;SDS011;43222;52.912;6.940;2023-04-16T08:47:07;39.08;;;24.95;;
57395;SDS011;43222;52.912;6.940;2023-04-16T08:49:34;34.58;;;24.30;;
57395;SDS011;43222;52.912;6.940;2023-04-16T08:52:01;39.72;;;23.98;;
57395;SDS011;43222;52.912;6.940;2023-04-16T08:54:33;35.58;;;23.48;;
57395;SDS011;43222;52.912;6.940;2023-04-16T08:57:01;38.28;;;24.50;;
57395;SDS011;43222;52.912;6.940;2023-04-16T08:59:30;37.72;;;24.00;;
57395;SDS011;43222;52.912;6.940;2023-04-16T09:01:57;35.08;;;23.10;;
57395;SDS011;43222;52.912;6.940;2023-04-16T09:04:26;32.10;;;22.98;;
57395;SDS011;43222;52.912;6.940;2023-04-16T09:06:54;35.28;;;23.42;;
57395;SDS011;43222;52.912;6.940;2023-04-16T09:09:20;29.95;;;21.50;;
57395;SDS011;43222;52.912;6.940;2023-04-16T09:11:53;33.88;;;22.27;;
57395;SDS011;43222;52.912;6.940;2023-04-16T09:14:19;36.05;;;22.52;;
57395;SDS011;43222;52.912;6.940;2023-04-16T09:16:46;28.35;;;20.58;;
57395;SDS011;43222;52.912;6.940;2023-04-16T09:19:15;28.10;;;19.95;;
57395;SDS011;43222;52.912;6.940;2023-04-16T09:21:42;26.30;;;20.27;;
57395;SDS011;43222;52.912;6.940;2023-04-16T09:24:10;28.77;;;20.33;;
57395;SDS011;43222;52.912;6.940;2023-04-16T09:26:37;27.33;;;20.38;;
57395;SDS011;43222;52.912;6.940;2023-04-16T09:29:03;28.80;;;19.23;;
57395;SDS011;43222;52.912;6.940;2023-04-16T09:31:29;28.23;;;20.60;;
57395;SDS011;43222;52.912;6.940;2023-04-16T09:34:02;28.73;;;19.60;;
57395;SDS011;43222;52.912;6.940;2023-04-16T09:36:29;26.65;;;19.70;;
57395;SDS011;43222;52.912;6.940;2023-04-16T09:38:56;27.10;;;19.48;;
57395;SDS011;43222;52.912;6.940;2023-04-16T09:41:23;25.63;;;19.30;;
57395;SDS011;43222;52.912;6.940;2023-04-16T09:43:55;25.00;;;18.67;;
57395;SDS011;43222;52.912;6.940;2023-04-16T09:46:22;25.60;;;18.83;;
57395;SDS011;43222;52.912;6.940;2023-04-16T09:48:48;27.00;;;19.88;;
57395;SDS011;43222;52.912;6.940;2023-04-16T09:51:14;25.17;;;18.98;;
57395;SDS011;43222;52.912;6.940;2023-04-16T09:53:40;24.40;;;18.90;;
57395;SDS011;43222;52.912;6.940;2023-04-16T09:56:07;26.30;;;19.30;;
57395;SDS011;43222;52.912;6.940;2023-04-16T09:58:36;25.55;;;19.23;;
57395;SDS011;43222;52.912;6.940;2023-04-16T10:01:09;25.55;;;19.35;;
57395;SDS011;43222;52.912;6.940;2023-04-16T10:03:36;27.33;;;19.30;;
57395;SDS011;43222;52.912;6.940;2023-04-16T10:06:06;25.67;;;19.70;;
57395;SDS011;43222;52.912;6.940;2023-04-16T10:08:33;26.42;;;20.20;;
57395;SDS011;43222;52.912;6.940;2023-04-16T10:11:00;24.08;;;18.60;;
57395;SDS011;43222;52.912;6.940;2023-04-16T10:13:26;27.45;;;19.15;;
57395;SDS011;43222;52.912;6.940;2023-04-16T10:15:55;29.17;;;19.83;;
57395;SDS011;43222;52.912;6.940;2023-04-16T10:18:21;28.58;;;20.35;;
57395;SDS011;43222;52.912;6.940;2023-04-16T10:20:48;26.55;;;19.25;;
57395;SDS011;43222;52.912;6.940;2023-04-16T10:23:14;28.35;;;19.42;;
57395;SDS011;43222;52.912;6.940;2023-04-16T10:25:41;25.30;;;18.70;;
57395;SDS011;43222;52.912;6.940;2023-04-16T10:28:09;26.35;;;19.13;;
57395;SDS011;43222;52.912;6.940;2023-04-16T10:30:35;26.95;;;18.92;;
57395;SDS011;43222;52.912;6.940;2023-04-16T10:33:02;26.33;;;19.17;;
57395;SDS011;43222;52.912;6.940;2023-04-16T10:35:29;27.92;;;18.75;;
57395;SDS011;43222;52.912;6.940;2023-04-16T10:37:56;24.58;;;19.33;;
57395;SDS011;43222;52.912;6.940;2023-04-16T10:40:23;26.98;;;19.20;;
57395;SDS011;43222;52.912;6.940;2023-04-16T10:42:53;22.00;;;18.23;;
57395;SDS011;43222;52.912;6.940;2023-04-16T10:45:19;25.25;;;19.17;;
57395;SDS011;43222;52.912;6.940;2023-04-16T10:47:50;32.80;;;18.73;;
57395;SDS011;43222;52.912;6.940;2023-04-16T10:50:21;26.42;;;18.33;;
57395;SDS011;43222;52.912;6.940;2023-04-16T10:52:47;22.60;;;18.90;;
57395;SDS011;43222;52.912;6.940;2023-04-16T10:55:16;25.90;;;18.08;;
57395;SDS011;43222;52.912;6.940;2023-04-16T10:57:42;24.35;;;18.63;;
57395;SDS011;43222;52.912;6.940;2023-04-16T11:00:21;22.38;;;18.83;;
57395;SDS011;43222;52.912;6.940;2023-04-16T11:02:51;25.17;;;18.70;;
57395;SDS011;43222;52.912;6.940;2023-04-16T11:05:20;28.02;;;19.33;;
57395;SDS011;43222;52.912;6.940;2023-04-16T11:07:47;23.48;;;18.55;;
57395;SDS011;43222;52.912;6.940;2023-04-16T11:10:13;24.10;;;19.48;;
57395;SDS011;43222;52.912;6.940;2023-04-16T11:12:44;26.75;;;18.42;;
57395;SDS011;43222;52.912;6.940;2023-04-16T11:15:12;26.27;;;20.05;;
57395;SDS011;43222;52.912;6.940;2023-04-16T11:17:38;22.65;;;18.63;;
57395;SDS011;43222;52.912;6.940;2023-04-16T11:20:19;26.55;;;18.85;;
57395;SDS011;43222;52.912;6.940;2023-04-16T11:22:45;25.13;;;19.52;;
57395;SDS011;43222;52.912;6.940;2023-04-16T11:25:12;27.80;;;19.88;;
57395;SDS011;43222;52.912;6.940;2023-04-16T11:27:38;24.40;;;18.90;;
57395;SDS011;43222;52.912;6.940;2023-04-16T11:30:04;25.92;;;18.48;;
57395;SDS011;43222;52.912;6.940;2023-04-16T11:32:32;23.20;;;17.67;;
57395;SDS011;43222;52.912;6.940;2023-04-16T11:34:59;22.17;;;18.17;;
57395;SDS011;43222;52.912;6.940;2023-04-16T11:37:32;21.25;;;18.10;;
57395;SDS011;43222;52.912;6.940;2023-04-16T11:39:58;23.88;;;17.75;;
57395;SDS011;43222;52.912;6.940;2023-04-16T11:42:25;21.52;;;17.88;;
57395;SDS011;43222;52.912;6.940;2023-04-16T11:44:55;20.15;;;17.48;;
57395;SDS011;43222;52.912;6.940;2023-04-16T11:47:22;23.48;;;18.83;;
57395;SDS011;43222;52.912;6.940;2023-04-16T11:49:49;22.27;;;18.45;;
57395;SDS011;43222;52.912;6.940;2023-04-16T11:52:30;22.88;;;18.85;;
57395;SDS011;43222;52.912;6.940;2023-04-16T11:54:56;22.85;;;17.90;;
57395;SDS011;43222;52.912;6.940;2023-04-16T11:57:26;22.42;;;18.05;;
57395;SDS011;43222;52.912;6.940;2023-04-16T11:59:52;22.33;;;18.15;;
57395;SDS011;43222;52.912;6.940;2023-04-16T12:02:34;25.50;;;18.27;;
57395;SDS011;43222;52.912;6.940;2023-04-16T12:05:04;26.00;;;18.83;;
57395;SDS011;43222;52.912;6.940;2023-04-16T12:07:31;22.07;;;18.33;;
57395;SDS011;43222;52.912;6.940;2023-04-16T12:10:05;20.48;;;17.00;;
57395;SDS011;43222;52.912;6.940;2023-04-16T12:12:32;22.73;;;17.55;;
57395;SDS011;43222;52.912;6.940;2023-04-16T12:15:00;21.35;;;17.20;;
57395;SDS011;43222;52.912;6.940;2023-04-16T12:17:32;24.60;;;17.65;;
57395;SDS011;43222;52.912;6.940;2023-04-16T12:20:02;23.20;;;17.77;;
57395;SDS011;43222;52.912;6.940;2023-04-16T12:22:35;22.33;;;17.52;;
57395;SDS011;43222;52.912;6.940;2023-04-16T12:25:02;22.10;;;17.30;;
57395;SDS011;43222;52.912;6.940;2023-04-16T12:30:15;22.90;;;16.85;;
57395;SDS011;43222;52.912;6.940;2023-04-16T12:32:41;24.65;;;16.35;;
57395;SDS011;43222;52.912;6.940;2023-04-16T12:35:09;24.88;;;17.00;;
57395;SDS011;43222;52.912;6.940;2023-04-16T12:37:36;25.83;;;16.77;;
57395;SDS011;43222;52.912;6.940;2023-04-16T12:40:02;22.75;;;14.57;;
57395;SDS011;43222;52.912;6.940;2023-04-16T12:42:31;24.75;;;16.10;;
57395;SDS011;43222;52.912;6.940;2023-04-16T12:45:01;25.38;;;16.38;;
57395;SDS011;43222;52.912;6.940;2023-04-16T12:47:28;24.13;;;16.20;;
57395;SDS011;43222;52.912;6.940;2023-04-16T12:49:55;22.50;;;15.43;;
57395;SDS011;43222;52.912;6.940;2023-04-16T12:52:22;28.48;;;15.25;;
57395;SDS011;43222;52.912;6.940;2023-04-16T12:54:48;25.77;;;15.55;;
57395;SDS011;43222;52.912;6.940;2023-04-16T12:57:14;23.25;;;15.43;;
57395;SDS011;43222;52.912;6.940;2023-04-16T12:59:40;18.65;;;14.70;;
57395;SDS011;43222;52.912;6.940;2023-04-16T13:02:06;20.02;;;14.55;;
57395;SDS011;43222;52.912;6.940;2023-04-16T13:04:32;18.02;;;13.57;;
57395;SDS011;43222;52.912;6.940;2023-04-16T13:06:59;21.58;;;13.70;;
57395;SDS011;43222;52.912;6.940;2023-04-16T13:09:25;15.88;;;12.80;;
57395;SDS011;43222;52.912;6.940;2023-04-16T13:11:51;19.55;;;14.13;;
57395;SDS011;43222;52.912;6.940;2023-04-16T13:14:18;17.80;;;12.88;;
57395;SDS011;43222;52.912;6.940;2023-04-16T13:16:45;20.45;;;14.77;;
57395;SDS011;43222;52.912;6.940;2023-04-16T13:19:11;21.05;;;14.57;;
57395;SDS011;43222;52.912;6.940;2023-04-16T13:21:37;20.17;;;14.05;;
57395;SDS011;43222;52.912;6.940;2023-04-16T13:24:03;19.55;;;14.07;;
57395;SDS011;43222;52.912;6.940;2023-04-16T13:26:29;20.52;;;15.15;;
57395;SDS011;43222;52.912;6.940;2023-04-16T13:28:55;18.80;;;15.05;;
57395;SDS011;43222;52.912;6.940;2023-04-16T13:31:22;18.75;;;12.98;;
57395;SDS011;43222;52.912;6.940;2023-04-16T13:33:48;21.10;;;13.55;;
57395;SDS011;43222;52.912;6.940;2023-04-16T13:36:14;19.67;;;15.25;;
57395;SDS011;43222;52.912;6.940;2023-04-16T13:38:41;24.20;;;15.45;;
57395;SDS011;43222;52.912;6.940;2023-04-16T13:41:07;21.50;;;15.60;;
57395;SDS011;43222;52.912;6.940;2023-04-16T13:43:35;21.00;;;15.52;;
57395;SDS011;43222;52.912;6.940;2023-04-16T13:46:01;17.95;;;15.13;;
57395;SDS011;43222;52.912;6.940;2023-04-16T13:48:27;19.83;;;14.93;;
57395;SDS011;43222;52.912;6.940;2023-04-16T13:50:54;20.85;;;15.45;;
57395;SDS011;43222;52.912;6.940;2023-04-16T13:53:20;23.77;;;16.17;;
57395;SDS011;43222;52.912;6.940;2023-04-16T13:55:46;28.08;;;16.40;;
57395;SDS011;43222;52.912;6.940;2023-04-16T13:58:13;23.88;;;17.08;;
57395;SDS011;43222;52.912;6.940;2023-04-16T14:00:40;19.85;;;15.90;;
57395;SDS011;43222;52.912;6.940;2023-04-16T14:03:06;20.70;;;15.90;;
57395;SDS011;43222;52.912;6.940;2023-04-16T14:05:32;22.98;;;17.35;;
57395;SDS011;43222;52.912;6.940;2023-04-16T14:07:59;24.90;;;18.60;;
57395;SDS011;43222;52.912;6.940;2023-04-16T14:10:25;22.15;;;18.00;;
57395;SDS011;43222;52.912;6.940;2023-04-16T14:12:51;23.40;;;19.08;;
57395;SDS011;43222;52.912;6.940;2023-04-16T14:15:17;25.23;;;18.35;;
57395;SDS011;43222;52.912;6.940;2023-04-16T14:17:43;22.90;;;18.38;;